createdAt,value
2022-08-25T00:01:11.401Z,100.00
2022-08-25T00:04:20.370Z,100.00
2022-08-25T00:07:27.165Z,100.00
2022-08-25T00:10:34.894Z,100.00
2022-08-25T00:13:43.931Z,100.00
2022-08-25T00:16:50.519Z,100.00
2022-08-25T00:19:58.099Z,100.00
2022-08-25T00:23:04.482Z,100.00
2022-08-25T00:26:14.446Z,100.00
2022-08-25T00:29:21.312Z,100.00
2022-08-25T00:32:28.142Z,100.00
2022-08-25T00:35:36.089Z,100.00
2022-08-25T00:38:44.180Z,100.00
2022-08-25T00:41:52.543Z,100.00
2022-08-25T00:45:00.595Z,100.00
2022-08-25T00:48:07.371Z,100.00
2022-08-25T00:51:22.126Z,100.00
2022-08-25T00:54:33.659Z,100.00
2022-08-25T00:57:44.523Z,100.00
2022-08-25T01:00:53.122Z,100.00
2022-08-25T01:03:59.486Z,100.00
2022-08-25T01:07:07.914Z,100.00
2022-08-25T01:10:24.294Z,100.00
2022-08-25T01:13:35.259Z,100.00
2022-08-25T01:16:43.672Z,100.00
2022-08-25T01:19:50.269Z,100.00
2022-08-25T01:22:59.595Z,100.00
2022-08-25T01:26:10.621Z,100.00
2022-08-25T01:29:25.537Z,100.00
2022-08-25T01:32:35.992Z,100.00
2022-08-25T01:35:42.448Z,100.00
2022-08-25T01:38:50.402Z,100.00
2022-08-25T01:42:11.568Z,100.00
2022-08-25T01:45:18.586Z,100.00
2022-08-25T01:48:24.747Z,100.00
2022-08-25T01:51:36.083Z,100.00
2022-08-25T01:54:44.055Z,100.00
2022-08-25T01:57:50.526Z,100.00
2022-08-25T02:00:58.783Z,100.00
2022-08-25T02:04:06.099Z,100.00
2022-08-25T02:07:14.773Z,100.00
2022-08-25T02:10:22.556Z,100.00
2022-08-25T02:13:31.553Z,100.00
2022-08-25T02:16:41.337Z,100.00
2022-08-25T02:19:47.743Z,100.00
2022-08-25T02:22:56.873Z,100.00
2022-08-25T02:26:06.290Z,100.00
2022-08-25T02:29:13.014Z,100.00
2022-08-25T02:32:18.998Z,100.00
2022-08-25T02:35:25.412Z,100.00
2022-08-25T02:38:31.930Z,100.00
2022-08-25T02:41:40.190Z,100.00
2022-08-25T02:44:46.790Z,100.00
2022-08-25T02:47:53.734Z,100.00
2022-08-25T02:51:02.744Z,100.00
2022-08-25T02:54:09.463Z,100.00
2022-08-25T02:57:18.308Z,100.00
2022-08-25T03:00:24.958Z,100.00
2022-08-25T03:03:31.395Z,100.00
2022-08-25T03:06:38.160Z,100.00
2022-08-25T03:09:45.148Z,100.00
2022-08-25T03:12:53.071Z,100.00
2022-08-25T03:16:00.557Z,100.00
2022-08-25T03:19:07.260Z,100.00
2022-08-25T03:22:14.639Z,100.00
2022-08-25T03:25:38.874Z,100.00
2022-08-25T03:28:46.668Z,100.00
2022-08-25T03:31:53.452Z,100.00
2022-08-25T03:35:01.675Z,100.00
2022-08-25T03:38:07.986Z,100.00
2022-08-25T03:41:17.250Z,100.00
2022-08-25T03:44:24.926Z,100.00
2022-08-25T03:47:31.635Z,100.00
2022-08-25T03:50:38.815Z,100.00
2022-08-25T03:53:45.340Z,100.00
2022-08-25T03:56:51.601Z,100.00
2022-08-25T03:59:59.410Z,100.00
2022-08-25T04:03:05.956Z,100.00
2022-08-25T04:06:12.416Z,100.00
2022-08-25T04:09:19.062Z,100.00
2022-08-25T04:12:25.717Z,100.00
2022-08-25T04:15:33.319Z,100.00
2022-08-25T04:18:39.942Z,100.00
2022-08-25T04:21:46.594Z,100.00
2022-08-25T04:24:52.978Z,100.00
2022-08-25T04:27:59.443Z,100.00
2022-08-25T04:31:09.717Z,100.00
2022-08-25T04:34:29.419Z,100.00
2022-08-25T04:37:37.658Z,100.00
2022-08-25T04:40:44.261Z,100.00
2022-08-25T04:43:50.648Z,100.00
2022-08-25T04:46:58.167Z,100.00
2022-08-25T04:50:04.990Z,100.00
2022-08-25T04:53:11.130Z,100.00
2022-08-25T04:56:19.600Z,100.00
2022-08-25T04:59:27.338Z,100.00
2022-08-25T05:02:37.238Z,100.00
2022-08-25T05:05:43.979Z,100.00
2022-08-25T05:08:50.022Z,100.00
2022-08-25T05:11:56.472Z,100.00
2022-08-25T05:15:22.998Z,100.00
2022-08-25T05:18:32.311Z,100.00
2022-08-25T05:21:38.616Z,100.00
2022-08-25T05:24:44.959Z,100.00
2022-08-25T05:27:51.426Z,100.00
2022-08-25T05:31:00.461Z,100.00
2022-08-25T05:34:09.320Z,100.00
2022-08-25T05:37:15.907Z,100.00
2022-08-25T05:40:22.615Z,100.00
2022-08-25T05:43:28.866Z,100.00
2022-08-25T05:46:35.350Z,100.00
2022-08-25T05:49:42.909Z,100.00
2022-08-25T05:52:49.192Z,100.00
2022-08-25T05:55:57.704Z,100.00
2022-08-25T05:59:08.651Z,100.00
2022-08-25T06:02:32.990Z,100.00
2022-08-25T06:05:41.224Z,100.00
2022-08-25T06:08:48.074Z,100.00
2022-08-25T06:11:55.520Z,100.00
2022-08-25T06:15:02.087Z,100.00
2022-08-25T06:18:08.200Z,100.00
2022-08-25T06:21:17.415Z,100.00
2022-08-25T06:24:24.219Z,100.00
2022-08-25T06:27:30.604Z,100.00
2022-08-25T06:30:36.556Z,100.00
2022-08-25T06:33:42.639Z,100.00
2022-08-25T06:36:50.672Z,100.00
2022-08-25T06:39:57.100Z,100.00
2022-08-25T06:43:06.870Z,100.00
2022-08-25T06:46:14.218Z,100.00
2022-08-25T06:49:20.594Z,100.00
2022-08-25T06:52:29.482Z,100.00
2022-08-25T06:55:36.335Z,100.00
2022-08-25T06:58:43.054Z,100.00
2022-08-25T07:01:49.788Z,100.00
2022-08-25T07:04:58.902Z,100.00
2022-08-25T07:08:06.777Z,100.00
2022-08-25T07:11:16.390Z,100.00
2022-08-25T07:14:23.883Z,100.00
2022-08-25T07:17:30.302Z,100.00
2022-08-25T07:20:36.928Z,100.00
2022-08-25T07:23:44.810Z,100.00
2022-08-25T07:26:51.738Z,100.00
2022-08-25T07:29:59.044Z,100.00
2022-08-25T07:33:06.966Z,100.00
2022-08-25T07:36:12.708Z,100.00
2022-08-25T07:39:22.105Z,100.00
2022-08-25T07:42:28.456Z,100.00
2022-08-25T07:45:36.507Z,100.00
2022-08-25T07:48:53.590Z,100.00
2022-08-25T07:52:05.472Z,98.07
2022-08-25T07:55:17.868Z,100.00
2022-08-25T07:58:24.372Z,100.00
2022-08-25T08:01:30.312Z,100.00
2022-08-25T08:04:38.222Z,100.00
2022-08-25T08:07:47.565Z,100.00
2022-08-25T08:11:10.687Z,99.74
2022-08-25T08:14:17.859Z,97.13
2022-08-25T08:17:24.279Z,95.46
2022-08-25T08:20:31.827Z,94.63
2022-08-25T08:23:49.437Z,95.40
2022-08-25T08:26:58.935Z,91.62
2022-08-25T08:30:06.486Z,93.07
2022-08-25T08:33:12.985Z,89.24
2022-08-25T08:36:20.364Z,87.93
2022-08-25T08:39:27.219Z,93.91
2022-08-25T08:42:53.067Z,94.11
2022-08-25T08:45:59.511Z,93.68
2022-08-25T08:49:14.201Z,98.35
2022-08-25T08:52:26.003Z,91.96
2022-08-25T08:55:40.476Z,92.41
2022-08-25T08:58:53.921Z,89.32
2022-08-25T09:02:02.140Z,91.68
2022-08-25T09:05:12.426Z,88.64
2022-08-25T09:08:20.253Z,92.35
2022-08-25T09:11:51.974Z,91.71
2022-08-25T09:15:12.593Z,86.46
2022-08-25T09:18:27.748Z,82.46
2022-08-25T09:21:42.675Z,84.36
2022-08-25T09:25:03.424Z,83.41
2022-08-25T09:28:21.895Z,81.64
2022-08-25T09:31:34.300Z,79.38
2022-08-25T09:34:40.567Z,74.94
2022-08-25T09:37:57.627Z,70.74
2022-08-25T09:41:05.291Z,67.86
2022-08-25T09:44:20.447Z,59.90
2022-08-25T09:47:29.183Z,55.74
2022-08-25T09:50:35.933Z,59.22
2022-08-25T09:53:47.366Z,55.24
2022-08-25T09:56:55.700Z,55.83
2022-08-25T10:00:16.435Z,56.47
2022-08-25T10:03:25.062Z,56.46
2022-08-25T10:06:37.971Z,56.19
2022-08-25T10:09:45.064Z,59.66
2022-08-25T10:12:52.521Z,55.56
2022-08-25T10:16:20.118Z,55.80
2022-08-25T10:19:30.426Z,54.15
2022-08-25T10:22:36.897Z,48.79
2022-08-25T10:25:59.477Z,49.92
2022-08-25T10:29:27.151Z,50.76
2022-08-25T10:32:50.563Z,52.04
2022-08-25T10:36:03.796Z,54.04
2022-08-25T10:39:34.307Z,55.33
2022-08-25T10:42:54.966Z,46.92
2022-08-25T10:46:08.547Z,45.62
2022-08-25T10:49:20.662Z,45.39
2022-08-25T10:52:39.588Z,44.53
2022-08-25T10:55:57.807Z,47.58
2022-08-25T10:59:24.302Z,50.33
2022-08-25T11:02:58.224Z,51.83
2022-08-25T11:06:09.029Z,50.52
2022-08-25T11:09:22.573Z,52.73
2022-08-25T11:12:35.040Z,46.27
2022-08-25T11:16:06.565Z,46.71
2022-08-25T11:19:20.355Z,44.81
2022-08-25T11:22:31.575Z,45.12
2022-08-25T11:25:45.171Z,46.10
2022-08-25T11:29:00.125Z,45.98
2022-08-25T11:32:07.146Z,44.91
2022-08-25T11:35:15.422Z,43.62
2022-08-25T11:38:35.712Z,42.92
2022-08-25T11:41:56.057Z,43.33
2022-08-25T11:45:14.121Z,41.17
2022-08-25T11:48:33.031Z,42.64
2022-08-25T11:51:45.189Z,44.50
2022-08-25T11:54:51.952Z,46.27
2022-08-25T11:58:30.669Z,45.30
2022-08-25T12:02:29.279Z,45.95
2022-08-25T12:06:13.714Z,43.61
2022-08-25T12:09:23.557Z,42.47
2022-08-25T12:12:32.390Z,46.97
2022-08-25T12:15:57.857Z,45.43
2022-08-25T12:19:26.408Z,45.71
2022-08-25T12:22:58.678Z,41.14
2022-08-25T12:26:15.288Z,44.33
2022-08-25T12:29:42.438Z,42.85
2022-08-25T12:33:03.277Z,44.50
2022-08-25T12:36:12.873Z,44.71
2022-08-25T12:39:24.334Z,48.13
2022-08-25T12:42:36.965Z,47.50
2022-08-25T12:45:46.482Z,46.37
2022-08-25T12:48:58.259Z,44.18
2022-08-25T12:52:09.311Z,44.08
2022-08-25T12:55:19.414Z,44.52
2022-08-25T12:58:58.742Z,41.67
2022-08-25T13:02:21.160Z,43.20
2022-08-25T13:05:54.488Z,47.52
2022-08-25T13:09:50.175Z,46.48
2022-08-25T13:13:01.903Z,44.67
2022-08-25T13:16:18.843Z,44.39
2022-08-25T13:19:26.519Z,43.31
2022-08-25T13:22:32.894Z,46.71
2022-08-25T13:25:50.727Z,44.31
2022-08-25T13:29:00.404Z,47.75
2022-08-25T13:32:26.143Z,43.92
2022-08-25T13:35:38.454Z,45.31
2022-08-25T13:38:46.907Z,43.70
2022-08-25T13:41:58.193Z,42.31
2022-08-25T13:45:16.775Z,43.48
2022-08-25T13:48:36.115Z,41.39
2022-08-25T13:51:53.631Z,43.66
2022-08-25T13:55:01.823Z,42.46
2022-08-25T13:58:16.259Z,40.82
2022-08-25T14:01:48.065Z,43.94
2022-08-25T14:04:57.675Z,44.04
2022-08-25T14:08:16.124Z,42.58
2022-08-25T14:11:31.831Z,43.09
2022-08-25T14:14:38.183Z,41.13
2022-08-25T14:21:00.172Z,42.49
2022-08-25T14:24:07.786Z,42.46
2022-08-25T14:27:18.863Z,40.41
2022-08-25T14:30:29.036Z,41.60
2022-08-25T14:33:39.890Z,43.29
2022-08-25T14:36:48.539Z,40.51
2022-08-25T14:39:55.028Z,38.37
2022-08-25T14:43:02.122Z,42.82
2022-08-25T14:46:19.525Z,39.31
2022-08-25T14:49:29.916Z,40.44
2022-08-25T14:52:37.403Z,42.40
2022-08-25T14:55:44.218Z,43.44
2022-08-25T14:58:54.209Z,44.38
2022-08-25T15:02:01.389Z,46.08
2022-08-25T15:05:11.886Z,43.56
2022-08-25T15:08:36.795Z,42.91
2022-08-25T15:11:46.946Z,45.99
2022-08-25T15:14:53.439Z,46.14
2022-08-25T15:18:01.249Z,44.28
2022-08-25T15:21:08.648Z,47.21
2022-08-25T15:24:18.489Z,47.42
2022-08-25T15:27:25.126Z,47.55
2022-08-25T15:30:37.195Z,46.58
2022-08-25T15:33:44.187Z,46.79
2022-08-25T15:36:50.846Z,45.63
2022-08-25T15:39:58.962Z,47.75
2022-08-25T15:43:05.801Z,49.39
2022-08-25T15:46:18.924Z,50.67
2022-08-25T15:49:25.695Z,52.11
2022-08-25T15:52:47.639Z,51.58
2022-08-25T15:55:57.577Z,54.89
2022-08-25T15:59:08.615Z,53.65
2022-08-25T16:02:15.513Z,54.12
2022-08-25T16:05:25.636Z,55.35
2022-08-25T16:08:33.671Z,57.14
2022-08-25T16:11:43.478Z,54.99
2022-08-25T16:14:49.994Z,59.45
2022-08-25T16:18:00.541Z,60.34
2022-08-25T16:21:12.337Z,63.15
2022-08-25T16:24:19.018Z,62.86
2022-08-25T16:27:26.895Z,61.99
2022-08-25T16:30:52.542Z,61.11
2022-08-25T16:33:59.273Z,61.80
2022-08-25T16:37:06.451Z,66.43
2022-08-25T16:40:15.104Z,65.39
2022-08-25T16:43:23.340Z,65.48
2022-08-25T16:46:31.279Z,65.84
2022-08-25T16:49:38.234Z,68.21
2022-08-25T16:53:01.943Z,67.15
2022-08-25T16:56:11.453Z,67.24
2022-08-25T16:59:19.807Z,65.95
2022-08-25T17:02:26.478Z,68.66
2022-08-25T17:05:34.613Z,65.29
2022-08-25T17:08:41.198Z,65.88
2022-08-25T17:11:49.164Z,66.81
2022-08-25T17:14:56.955Z,71.11
2022-08-25T17:18:03.614Z,73.17
2022-08-25T17:21:19.548Z,74.77
2022-08-25T17:24:31.859Z,72.99
2022-08-25T17:27:40.008Z,67.96
2022-08-25T17:30:48.178Z,68.88
2022-08-25T17:33:54.763Z,69.46
2022-08-25T17:37:01.487Z,65.39
2022-08-25T17:40:11.120Z,69.81
2022-08-25T17:43:17.787Z,73.23
2022-08-25T17:46:26.603Z,74.86
2022-08-25T17:49:33.631Z,70.99
2022-08-25T17:52:39.909Z,68.22
2022-08-25T17:55:47.278Z,67.40
2022-08-25T17:58:55.264Z,68.67
2022-08-25T18:02:03.164Z,72.33
2022-08-25T18:05:12.655Z,67.83
2022-08-25T18:08:19.442Z,69.34
2022-08-25T18:11:26.021Z,68.99
2022-08-25T18:14:32.312Z,70.29
2022-08-25T18:17:40.615Z,68.90
2022-08-25T18:20:47.430Z,68.79
2022-08-25T18:23:56.003Z,69.24
2022-08-25T18:27:02.995Z,70.08
2022-08-25T18:30:11.055Z,75.92
2022-08-25T18:33:19.147Z,82.17
2022-08-25T18:36:25.649Z,75.40
2022-08-25T18:39:54.834Z,76.53
2022-08-25T18:43:03.371Z,81.38
2022-08-25T18:46:10.377Z,78.52
2022-08-25T18:49:18.490Z,77.33
2022-08-25T18:52:26.554Z,83.82
2022-08-25T18:55:36.447Z,84.01
2022-08-25T18:58:42.695Z,83.88
2022-08-25T19:01:50.020Z,85.78
2022-08-25T19:05:00.689Z,85.84
2022-08-25T19:08:13.602Z,88.46
2022-08-25T19:11:23.806Z,91.09
2022-08-25T19:14:30.872Z,90.43
2022-08-25T19:17:37.768Z,84.43
2022-08-25T19:20:46.055Z,85.89
2022-08-25T19:23:53.653Z,86.35
2022-08-25T19:27:02.437Z,84.81
2022-08-25T19:30:11.411Z,84.68
2022-08-25T19:33:31.406Z,87.91
2022-08-25T19:36:47.521Z,87.98
2022-08-25T19:39:54.266Z,89.03
2022-08-25T19:43:00.863Z,94.40
2022-08-25T19:46:07.823Z,96.29
2022-08-25T19:49:16.638Z,91.72
2022-08-25T19:52:26.589Z,94.24
2022-08-25T19:55:33.599Z,93.15
2022-08-25T19:58:39.891Z,92.95
2022-08-25T20:01:49.395Z,94.23
2022-08-25T20:04:59.429Z,98.90
2022-08-25T20:08:08.052Z,96.86
2022-08-25T20:11:14.931Z,92.87
2022-08-25T20:14:22.000Z,95.41
2022-08-25T20:17:29.300Z,91.58
2022-08-25T20:20:35.632Z,93.97
2022-08-25T20:24:00.547Z,96.07
2022-08-25T20:27:07.413Z,87.99
2022-08-25T20:30:16.746Z,93.53
2022-08-25T20:33:23.489Z,96.00
2022-08-25T20:36:30.254Z,93.03
2022-08-25T20:39:40.018Z,93.76
2022-08-25T20:42:46.714Z,100.00
2022-08-25T20:46:01.420Z,98.38
2022-08-25T20:49:08.255Z,94.74
2022-08-25T20:52:15.468Z,90.73
2022-08-25T20:55:23.707Z,94.57
2022-08-25T20:58:30.308Z,94.87
2022-08-25T21:01:40.056Z,97.67
2022-08-25T21:04:49.081Z,100.00
2022-08-25T21:07:56.676Z,99.08
2022-08-25T21:11:04.238Z,97.24
2022-08-25T21:14:10.719Z,94.96
2022-08-25T21:17:19.170Z,97.19
2022-08-25T21:20:27.106Z,95.11
2022-08-25T21:23:33.414Z,97.64
2022-08-25T21:26:48.723Z,94.61
2022-08-25T21:29:55.678Z,100.00
2022-08-25T21:33:02.364Z,99.93
2022-08-25T21:36:10.602Z,100.00
2022-08-25T21:39:19.446Z,100.00
2022-08-25T21:42:27.697Z,100.00
2022-08-25T21:45:46.376Z,100.00
2022-08-25T21:48:54.038Z,100.00
2022-08-25T21:52:02.235Z,100.00
2022-08-25T21:55:15.690Z,100.00
2022-08-25T21:58:23.901Z,100.00
2022-08-25T22:01:30.467Z,100.00
2022-08-25T22:04:38.915Z,100.00
2022-08-25T22:07:45.215Z,100.00
2022-08-25T22:10:52.227Z,100.00
2022-08-25T22:14:00.744Z,100.00
2022-08-25T22:17:10.017Z,100.00
2022-08-25T22:20:20.542Z,100.00
2022-08-25T22:23:28.347Z,100.00
2022-08-25T22:26:35.186Z,100.00
2022-08-25T22:29:43.694Z,100.00
2022-08-25T22:32:50.390Z,100.00
2022-08-25T22:35:59.768Z,100.00
2022-08-25T22:39:09.107Z,100.00
2022-08-25T22:42:15.500Z,100.00
2022-08-25T22:45:23.494Z,100.00
2022-08-25T22:48:30.259Z,100.00
2022-08-25T22:51:37.428Z,100.00
2022-08-25T22:54:44.325Z,100.00
2022-08-25T22:57:50.568Z,100.00
2022-08-25T23:01:02.879Z,100.00
2022-08-25T23:04:10.886Z,100.00
2022-08-25T23:07:17.922Z,100.00
2022-08-25T23:10:25.654Z,100.00
2022-08-25T23:13:34.304Z,100.00
2022-08-25T23:16:44.588Z,100.00
2022-08-25T23:19:51.110Z,100.00
2022-08-25T23:22:56.587Z,100.00
2022-08-25T23:26:03.290Z,100.00
2022-08-25T23:29:18.329Z,100.00
2022-08-25T23:32:28.054Z,100.00
2022-08-25T23:35:34.604Z,100.00
2022-08-25T23:38:43.978Z,100.00
2022-08-25T23:41:51.314Z,100.00
2022-08-25T23:44:57.412Z,100.00
2022-08-25T23:48:06.532Z,100.00
2022-08-25T23:51:12.967Z,100.00
2022-08-25T23:54:21.485Z,100.00
2022-08-25T23:57:27.805Z,100.00
